Time;durP1;ratioP1;P1;durP2;ratioP2;P2;SDS_P1;SDS_P2;PMS_P1;PMS_P2;Temp;Humidity;BMP_temperature;BMP_pressure;BME280_temperature;BME280_humidity;BME280_pressure;Samples;Min_cycle;Max_cycle;Signal;HPM_P1;HPM_P2
2024/03/23 00:01:32;;;;;;;1.53;1.10;;;9.30;98.20;;;;;;4872345;29;20607;-80
2024/03/23 00:04:02;;;;;;;1.50;1.10;;;9.30;98.20;;;;;;4874340;29;20891;-82
2024/03/23 00:06:30;;;;;;;1.60;1.30;;;9.20;98.20;;;;;;4874862;29;20585;-81
2024/03/23 00:09:00;;;;;;;1.50;1.10;;;9.20;98.20;;;;;;4873939;29;20506;-82
2024/03/23 00:11:28;;;;;;;1.53;1.10;;;9.20;98.20;;;;;;4874226;29;20477;-80
2024/03/23 00:13:58;;;;;;;1.60;1.20;;;9.20;98.20;;;;;;4879117;29;20542;-81
2024/03/23 00:16:27;;;;;;;1.60;1.20;;;9.20;98.20;;;;;;4881764;29;20475;-84
2024/03/23 00:18:57;;;;;;;1.50;1.10;;;9.20;98.20;;;;;;4882460;29;20498;-82
2024/03/23 00:21:25;;;;;;;1.50;1.10;;;9.20;98.20;;;;;;4879594;29;20569;-83
2024/03/23 00:23:55;;;;;;;1.50;1.10;;;9.10;98.20;;;;;;4878753;29;20478;-81
2024/03/23 00:26:23;;;;;;;1.50;1.20;;;9.10;98.20;;;;;;4875203;29;20482;-81
2024/03/23 00:28:53;;;;;;;1.50;1.10;;;9.10;98.20;;;;;;4874762;29;20498;-80
2024/03/23 00:31:21;;;;;;;2.30;2.07;;;9.10;98.20;;;;;;4873379;29;20470;-81
2024/03/23 00:33:51;;;;;;;1.50;1.10;;;9.10;98.20;;;;;;4875791;29;20481;-83
2024/03/23 00:36:19;;;;;;;1.50;1.10;;;9.10;98.20;;;;;;4879276;29;20475;-83
2024/03/23 00:38:49;;;;;;;1.50;1.20;;;9.10;98.20;;;;;;4877659;29;20494;-81
2024/03/23 00:41:17;;;;;;;1.50;1.10;;;9.00;98.20;;;;;;4873451;29;20506;-80
2024/03/23 00:43:47;;;;;;;1.50;1.17;;;8.90;98.20;;;;;;4872631;29;20488;-81
2024/03/23 00:46:16;;;;;;;1.57;1.10;;;8.80;98.20;;;;;;4878900;29;20517;-81
2024/03/23 00:48:46;;;;;;;1.50;1.10;;;8.70;98.20;;;;;;4879062;29;20500;-82
2024/03/23 00:51:14;;;;;;;1.50;1.20;;;8.70;98.20;;;;;;4879792;29;21016;-80
2024/03/23 00:53:42;;;;;;;1.57;1.10;;;8.70;98.20;;;;;;4879717;29;20485;-80
2024/03/23 00:56:08;;;;;;;1.50;1.10;;;8.60;98.20;;;;;;4880709;29;20477;-81
2024/03/23 00:58:36;;;;;;;1.50;1.20;;;8.60;98.20;;;;;;4879147;29;20573;-80
2024/03/23 01:01:03;;;;;;;1.57;1.20;;;8.50;98.20;;;;;;4884771;29;20518;-80
2024/03/23 01:03:30;;;;;;;1.50;1.13;;;8.40;98.20;;;;;;4883001;29;20466;-80
2024/03/23 01:05:59;;;;;;;1.53;1.10;;;8.30;98.20;;;;;;4884389;29;20562;-80
2024/03/23 01:08:26;;;;;;;1.50;1.10;;;8.30;98.20;;;;;;4885392;29;20498;-82
2024/03/23 01:10:57;;;;;;;1.50;1.10;;;8.20;98.20;;;;;;4881119;29;20582;-80
2024/03/23 01:13:24;;;;;;;1.60;1.20;;;8.20;98.20;;;;;;4880712;29;20643;-80
2024/03/23 01:15:51;;;;;;;1.57;1.20;;;8.10;98.20;;;;;;4881547;29;21130;-82
2024/03/23 01:18:18;;;;;;;1.53;1.20;;;8.10;98.20;;;;;;4883092;29;21030;-82
2024/03/23 01:20:45;;;;;;;1.60;1.20;;;8.00;98.20;;;;;;4878639;29;20471;-82
2024/03/23 01:23:11;;;;;;;1.53;1.20;;;8.00;98.20;;;;;;4879344;29;20503;-83
2024/03/23 01:25:38;;;;;;;1.50;1.10;;;8.00;98.20;;;;;;4887480;29;20470;-83
2024/03/23 01:28:06;;;;;;;1.57;1.20;;;8.00;98.20;;;;;;4887512;29;20494;-83
2024/03/23 01:30:33;;;;;;;1.60;1.20;;;8.00;98.20;;;;;;4885671;29;20474;-81
2024/03/23 01:32:59;;;;;;;1.57;1.17;;;8.00;98.20;;;;;;4885347;29;20542;-81
2024/03/23 01:35:27;;;;;;;1.57;1.20;;;8.00;98.20;;;;;;4886371;29;20506;-81
2024/03/23 01:37:53;;;;;;;1.50;1.10;;;8.00;98.20;;;;;;4885327;29;20295;-81
2024/03/23 01:40:21;;;;;;;1.50;1.10;;;8.00;98.20;;;;;;4887285;29;20486;-82
2024/03/23 01:42:55;;;;;;;1.60;1.20;;;8.00;98.20;;;;;;4886932;29;20214;-83
2024/03/23 01:45:24;;;;;;;4.20;3.87;;;8.00;98.20;;;;;;4886610;29;20465;-85
2024/03/23 01:47:50;;;;;;;1.50;1.10;;;8.00;98.20;;;;;;4884217;29;20495;-83
2024/03/23 01:50:17;;;;;;;1.60;1.20;;;8.00;98.20;;;;;;4882320;29;20495;-83
2024/03/23 01:52:44;;;;;;;1.50;1.10;;;8.00;98.20;;;;;;4884129;29;21559;-85
2024/03/23 01:55:11;;;;;;;1.53;1.20;;;8.00;98.20;;;;;;4879373;29;20478;-81
2024/03/23 01:57:37;;;;;;;1.57;1.20;;;8.00;98.20;;;;;;4876841;29;20484;-84
2024/03/23 02:00:04;;;;;;;1.50;1.10;;;7.90;98.20;;;;;;4878738;29;20539;-82
2024/03/23 02:02:32;;;;;;;1.50;1.10;;;7.80;98.20;;;;;;4879589;29;20589;-80
2024/03/23 02:04:58;;;;;;;1.50;1.20;;;7.60;98.20;;;;;;4876969;29;20479;-80
2024/03/23 02:07:24;;;;;;;1.57;1.27;;;7.50;98.20;;;;;;4878073;29;20494;-80
2024/03/23 02:09:52;;;;;;;1.50;1.20;;;7.40;98.20;;;;;;4877855;29;20526;-80
2024/03/23 02:12:18;;;;;;;1.60;1.20;;;7.40;98.20;;;;;;4878818;29;20526;-81
2024/03/23 02:14:45;;;;;;;1.50;1.10;;;7.40;98.20;;;;;;4874150;29;20470;-85
2024/03/23 02:17:10;;;;;;;1.50;1.20;;;7.40;98.20;;;;;;4882884;29;20557;-83
2024/03/23 02:19:39;;;;;;;1.53;1.20;;;7.40;98.20;;;;;;4883590;29;20521;-83
2024/03/23 02:22:05;;;;;;;1.60;1.30;;;7.40;98.20;;;;;;4883743;29;20217;-83
2024/03/23 02:24:34;;;;;;;1.57;1.20;;;7.40;98.20;;;;;;4883845;29;20467;-83
2024/03/23 02:27:00;;;;;;;1.60;1.33;;;7.30;98.20;;;;;;4884454;29;20735;-83
2024/03/23 02:29:26;;;;;;;1.53;1.20;;;7.30;98.20;;;;;;4885770;29;20550;-84
2024/03/23 02:31:52;;;;;;;1.50;1.20;;;7.30;98.20;;;;;;4881810;29;20241;-84
2024/03/23 02:34:19;;;;;;;1.60;1.30;;;7.30;98.20;;;;;;4884763;29;20481;-84
2024/03/23 02:36:45;;;;;;;1.60;1.27;;;7.30;98.20;;;;;;4882366;29;20214;-84
2024/03/23 02:39:12;;;;;;;1.50;1.13;;;7.30;98.20;;;;;;4884734;29;20494;-84
2024/03/23 02:41:39;;;;;;;1.50;1.20;;;7.30;98.20;;;;;;4885906;29;20214;-84
2024/03/23 02:44:06;;;;;;;1.53;1.20;;;7.30;98.20;;;;;;4885409;29;20494;-84
2024/03/23 02:46:32;;;;;;;1.57;1.27;;;7.40;98.20;;;;;;4887002;29;20515;-84
2024/03/23 02:48:59;;;;;;;1.60;1.23;;;7.40;98.20;;;;;;4886940;29;20498;-83
2024/03/23 02:51:25;;;;;;;1.53;1.20;;;7.40;98.20;;;;;;4889179;29;20221;-83
2024/03/23 02:53:52;;;;;;;1.53;1.20;;;7.50;98.20;;;;;;4884941;29;20505;-82
2024/03/23 02:56:18;;;;;;;1.60;1.40;;;7.50;98.20;;;;;;4887926;29;20266;-84
2024/03/23 02:58:46;;;;;;;1.53;1.20;;;7.50;98.20;;;;;;4886532;29;20506;-83
2024/03/23 03:01:12;;;;;;;1.50;1.10;;;7.50;98.20;;;;;;4882865;29;20217;-84
2024/03/23 03:03:38;;;;;;;1.50;1.20;;;7.50;98.20;;;;;;4884792;29;20474;-84
2024/03/23 03:06:04;;;;;;;1.50;1.20;;;7.50;98.20;;;;;;4887167;29;20273;-84
2024/03/23 03:08:31;;;;;;;1.57;1.30;;;7.50;98.20;;;;;;4886545;29;20530;-85
2024/03/23 03:10:57;;;;;;;1.50;1.20;;;7.50;98.20;;;;;;4885095;29;20807;-83
2024/03/23 03:13:24;;;;;;;1.50;1.20;;;7.50;98.20;;;;;;4885916;29;20467;-82
2024/03/23 03:15:53;;;;;;;1.60;1.20;;;7.50;98.20;;;;;;4884846;29;20995;-82
2024/03/23 03:18:19;;;;;;;1.53;1.20;;;7.40;98.20;;;;;;4886272;29;20505;-83
2024/03/23 03:20:46;;;;;;;1.50;1.20;;;7.40;98.20;;;;;;4886305;29;20501;-87
2024/03/23 03:23:12;;;;;;;1.50;1.20;;;7.50;98.20;;;;;;4882973;29;21045;-84
2024/03/23 03:25:38;;;;;;;1.53;1.20;;;7.40;98.20;;;;;;4887662;29;20217;-84
2024/03/23 03:28:05;;;;;;;1.53;1.20;;;7.50;98.20;;;;;;4884168;29;20579;-84
2024/03/23 03:30:31;;;;;;;1.53;1.17;;;7.50;98.20;;;;;;4885267;29;20214;-83
2024/03/23 03:32:59;;;;;;;1.50;1.17;;;7.50;98.20;;;;;;4886744;29;20502;-83
2024/03/23 03:35:31;;;;;;;1.50;1.20;;;7.40;98.20;;;;;;4885608;29;20301;-81
2024/03/23 03:40:39;;;;;;;1.50;1.20;;;7.40;98.20;;;;;;4885146;29;20944;-84
2024/03/23 03:43:05;;;;;;;1.50;1.20;;;7.40;98.20;;;;;;4885889;29;20474;-83
2024/03/23 03:45:32;;;;;;;1.60;1.20;;;7.40;98.20;;;;;;4888663;29;20502;-83
2024/03/23 03:47:59;;;;;;;1.60;1.20;;;7.50;98.20;;;;;;4886714;29;20258;-85
2024/03/23 03:50:26;;;;;;;1.60;1.30;;;7.50;98.20;;;;;;4885302;29;20546;-85
2024/03/23 03:52:51;;;;;;;1.50;1.20;;;7.40;98.20;;;;;;4886009;29;20546;-84
2024/03/23 03:55:18;;;;;;;1.50;1.20;;;7.50;98.20;;;;;;4885640;29;20498;-83
2024/03/23 03:57:44;;;;;;;1.50;1.20;;;7.50;98.20;;;;;;4885138;29;20218;-83
2024/03/23 04:00:12;;;;;;;1.50;1.10;;;7.50;98.20;;;;;;4884877;29;20586;-83
2024/03/23 04:02:38;;;;;;;1.50;1.20;;;7.50;98.20;;;;;;4885308;29;20282;-85
2024/03/23 04:05:08;;;;;;;1.53;1.30;;;7.50;98.20;;;;;;4886687;29;20474;-83
2024/03/23 04:07:33;;;;;;;1.50;1.20;;;7.50;98.20;;;;;;4885587;29;20558;-82
2024/03/23 04:10:00;;;;;;;1.50;1.20;;;7.40;98.20;;;;;;4882554;29;20530;-82
2024/03/23 04:12:26;;;;;;;1.50;1.20;;;7.40;98.20;;;;;;4883885;29;20249;-83
2024/03/23 04:14:56;;;;;;;1.53;1.30;;;7.40;98.20;;;;;;4884356;29;20482;-84
2024/03/23 04:17:22;;;;;;;1.57;1.20;;;7.40;98.20;;;;;;4883907;29;20474;-83
2024/03/23 04:19:50;;;;;;;1.50;1.30;;;7.40;98.20;;;;;;4886181;29;20554;-83
2024/03/23 04:22:32;;;;;;;1.57;1.20;;;7.40;98.20;;;;;;4886510;29;20689;-83
2024/03/23 04:24:59;;;;;;;1.50;1.20;;;7.40;98.20;;;;;;4886551;29;20573;-82
2024/03/23 04:27:25;;;;;;;1.50;1.20;;;7.30;98.20;;;;;;4882672;29;20521;-83
2024/03/23 04:29:53;;;;;;;1.53;1.20;;;7.30;98.20;;;;;;4883185;29;20498;-83
2024/03/23 04:32:19;;;;;;;1.60;1.30;;;7.30;98.20;;;;;;4886585;29;20474;-83
2024/03/23 04:37:49;;;;;;;1.50;1.20;;;7.30;98.20;;;;;;4889194;29;20565;-84
2024/03/23 04:40:23;;;;;;;1.50;1.20;;;7.30;98.20;;;;;;4886865;29;20494;-84
2024/03/23 04:42:50;;;;;;;1.53;1.30;;;7.30;98.20;;;;;;4888701;29;20467;-85
2024/03/23 04:45:17;;;;;;;1.53;1.20;;;7.20;98.20;;;;;;4890719;29;21061;-83
2024/03/23 04:47:44;;;;;;;1.60;1.27;;;7.20;98.20;;;;;;4891340;29;20500;-84
2024/03/23 04:50:11;;;;;;;1.50;1.20;;;7.20;98.20;;;;;;4888296;29;20498;-83
2024/03/23 04:52:38;;;;;;;1.53;1.20;;;7.10;98.20;;;;;;4892087;29;20501;-83
2024/03/23 04:55:08;;;;;;;1.53;1.30;;;7.10;98.20;;;;;;4890825;29;20659;-83
2024/03/23 04:57:34;;;;;;;1.57;1.20;;;7.10;98.20;;;;;;4893261;29;20469;-83
2024/03/23 05:00:04;;;;;;;1.60;1.30;;;7.10;98.20;;;;;;4890588;29;20471;-84
2024/03/23 05:02:34;;;;;;;1.60;1.30;;;7.10;98.20;;;;;;4890910;29;20225;-83
2024/03/23 05:05:07;;;;;;;1.60;1.30;;;7.10;98.20;;;;;;4889434;29;20737;-83
2024/03/23 05:07:34;;;;;;;1.60;1.40;;;7.10;98.20;;;;;;4890832;29;20869;-83
2024/03/23 05:10:19;;;;;;;1.57;1.23;;;7.10;98.20;;;;;;4891391;29;20522;-84
2024/03/23 05:12:46;;;;;;;1.50;1.20;;;7.10;98.20;;;;;;4890411;29;20546;-85
2024/03/23 05:15:37;;;;;;;1.50;1.30;;;7.10;98.20;;;;;;4893881;29;20502;-85
2024/03/23 05:18:05;;;;;;;1.57;1.30;;;7.10;98.20;;;;;;4893068;29;20463;-84
2024/03/23 05:20:31;;;;;;;1.50;1.20;;;7.00;98.20;;;;;;4892968;29;20486;-84
2024/03/23 05:23:15;;;;;;;1.50;1.20;;;7.10;98.20;;;;;;4892897;29;20497;-84
2024/03/23 05:25:42;;;;;;;1.57;1.20;;;7.10;98.20;;;;;;4889599;29;20246;-84
2024/03/23 05:28:11;;;;;;;1.57;1.20;;;7.10;98.20;;;;;;4891858;29;20488;-85
2024/03/23 05:30:37;;;;;;;1.53;1.23;;;7.00;98.20;;;;;;4888052;29;20494;-84
2024/03/23 05:33:04;;;;;;;1.57;1.27;;;7.10;98.20;;;;;;4892048;29;20479;-84
2024/03/23 05:35:41;;;;;;;1.57;1.20;;;7.10;98.20;;;;;;4899628;29;20206;-84
2024/03/23 05:38:08;;;;;;;1.50;1.20;;;7.10;98.20;;;;;;4899361;29;20478;-85
2024/03/23 05:40:37;;;;;;;1.50;1.20;;;7.10;98.20;;;;;;4893006;29;20470;-84
2024/03/23 05:43:05;;;;;;;1.50;1.30;;;7.00;98.20;;;;;;4892073;29;20513;-82
2024/03/23 05:45:31;;;;;;;1.50;1.20;;;7.00;98.20;;;;;;4892024;29;20546;-82
2024/03/23 05:47:58;;;;;;;1.50;1.20;;;7.00;98.20;;;;;;4891650;29;20521;-82
2024/03/23 05:50:23;;;;;;;1.50;1.27;;;7.00;98.20;;;;;;4892970;29;20204;-83
2024/03/23 05:52:50;;;;;;;1.60;1.30;;;7.00;98.20;;;;;;4891509;29;20502;-84
2024/03/23 05:55:16;;;;;;;1.50;1.20;;;6.90;98.20;;;;;;4891872;29;20765;-83
2024/03/23 05:57:43;;;;;;;1.50;1.20;;;6.90;98.20;;;;;;4892873;29;20482;-83
2024/03/23 06:00:15;;;;;;;1.50;1.20;;;6.90;98.20;;;;;;4893690;29;20257;-84
2024/03/23 06:02:44;;;;;;;1.50;1.20;;;7.00;98.20;;;;;;4892530;29;20481;-84
2024/03/23 06:05:10;;;;;;;1.60;1.30;;;7.00;98.20;;;;;;4892388;29;20471;-83
2024/03/23 06:07:36;;;;;;;1.50;1.20;;;7.10;98.20;;;;;;4894248;29;20524;-83
2024/03/23 06:10:03;;;;;;;1.53;1.20;;;7.10;98.20;;;;;;4892911;29;20486;-83
2024/03/23 06:12:29;;;;;;;1.50;1.20;;;7.10;98.20;;;;;;4891293;29;20473;-81
2024/03/23 06:14:55;;;;;;;1.53;1.20;;;7.10;98.20;;;;;;4894476;29;20481;-84
2024/03/23 06:17:23;;;;;;;1.50;1.20;;;7.10;98.20;;;;;;4892073;29;20470;-82
2024/03/23 06:19:49;;;;;;;1.50;1.20;;;7.10;98.20;;;;;;4888597;29;20403;-82
2024/03/23 06:22:19;;;;;;;1.50;1.20;;;7.10;98.20;;;;;;4894086;29;20538;-82
2024/03/23 06:24:45;;;;;;;1.50;1.20;;;7.10;98.20;;;;;;4895732;29;20454;-82
2024/03/23 06:27:11;;;;;;;1.57;1.20;;;7.10;98.20;;;;;;4894891;29;20493;-82
2024/03/23 06:29:38;;;;;;;1.50;1.20;;;7.10;98.20;;;;;;4889958;29;20230;-83
2024/03/23 06:32:04;;;;;;;1.57;1.30;;;7.00;98.20;;;;;;4894712;29;20531;-82
2024/03/23 06:34:32;;;;;;;1.50;1.20;;;7.00;98.20;;;;;;4896873;29;20509;-82
2024/03/23 06:36:58;;;;;;;1.50;1.20;;;7.00;98.20;;;;;;4891249;29;20230;-82
2024/03/23 06:39:25;;;;;;;1.57;1.30;;;6.90;98.20;;;;;;4890742;29;20506;-83
2024/03/23 06:41:54;;;;;;;1.50;1.20;;;6.90;98.20;;;;;;4894640;29;20233;-84
2024/03/23 06:44:21;;;;;;;1.50;1.20;;;6.90;98.20;;;;;;4892262;29;20465;-84
2024/03/23 06:46:48;;;;;;;1.50;1.20;;;6.90;98.20;;;;;;4896830;29;20482;-82
2024/03/23 06:49:15;;;;;;;1.50;1.20;;;7.00;98.20;;;;;;4892515;29;20520;-84
2024/03/23 06:51:43;;;;;;;1.53;1.20;;;7.20;98.20;;;;;;4893994;29;20463;-84
2024/03/23 06:54:10;;;;;;;1.50;1.17;;;7.30;98.20;;;;;;4890836;29;20528;-84
2024/03/23 06:56:36;;;;;;;1.57;1.20;;;7.50;98.20;;;;;;4888553;29;20691;-82
2024/03/23 06:59:02;;;;;;;1.50;1.20;;;7.70;98.20;;;;;;4889260;29;20501;-82
2024/03/23 07:01:28;;;;;;;1.50;1.20;;;7.90;98.20;;;;;;4890208;29;20302;-83
2024/03/23 07:03:55;;;;;;;1.57;1.20;;;8.00;98.20;;;;;;4892462;29;20498;-86
2024/03/23 07:06:21;;;;;;;1.60;1.20;;;8.20;98.20;;;;;;4892107;29;20821;-82
2024/03/23 07:08:49;;;;;;;1.50;1.20;;;8.40;98.20;;;;;;4892679;29;20494;-82
2024/03/23 07:11:19;;;;;;;1.57;1.30;;;8.60;98.20;;;;;;4895127;29;20542;-87
2024/03/23 07:13:46;;;;;;;1.57;1.20;;;8.80;98.20;;;;;;4894074;29;20546;-85
2024/03/23 07:16:13;;;;;;;1.57;1.20;;;8.90;98.20;;;;;;4889871;29;20534;-84
2024/03/23 07:18:40;;;;;;;1.57;1.20;;;9.10;98.20;;;;;;4885029;29;20491;-84
2024/03/23 07:21:06;;;;;;;1.60;1.20;;;9.30;98.20;;;;;;4886625;29;20477;-82
2024/03/23 07:23:34;;;;;;;1.50;1.10;;;9.40;98.20;;;;;;4887067;29;20458;-84
2024/03/23 07:26:04;;;;;;;1.53;1.10;;;9.50;98.20;;;;;;4888245;29;20498;-83
2024/03/23 07:28:33;;;;;;;1.53;1.10;;;9.60;98.20;;;;;;4888173;29;21082;-82
2024/03/23 07:31:06;;;;;;;1.50;1.10;;;9.80;98.20;;;;;;4885337;29;20467;-86
2024/03/23 07:33:33;;;;;;;1.57;1.10;;;9.80;98.20;;;;;;4886952;29;20459;-84
2024/03/23 07:36:00;;;;;;;1.60;1.17;;;9.90;98.20;;;;;;4887711;29;20470;-83
2024/03/23 07:38:30;;;;;;;1.50;1.03;;;10.00;98.20;;;;;;4885433;29;20545;-83
2024/03/23 07:41:11;;;;;;;1.57;1.10;;;10.10;98.20;;;;;;4882588;29;20484;-84
2024/03/23 07:43:41;;;;;;;1.57;1.10;;;10.20;98.20;;;;;;4887036;29;20470;-84
2024/03/23 07:46:07;;;;;;;1.60;1.20;;;10.30;98.20;;;;;;4883440;29;20470;-80
2024/03/23 07:48:34;;;;;;;1.57;1.20;;;10.40;98.20;;;;;;4883926;29;20516;-85
2024/03/23 07:51:01;;;;;;;1.50;1.10;;;10.40;98.20;;;;;;4883425;29;20534;-81
2024/03/23 07:53:28;;;;;;;1.50;1.10;;;10.50;98.20;;;;;;4882124;29;20501;-82
2024/03/23 07:55:56;;;;;;;1.50;1.00;;;10.60;98.20;;;;;;4890024;29;21026;-84
2024/03/23 07:58:24;;;;;;;1.50;1.00;;;10.60;98.20;;;;;;4890572;29;20557;-83
2024/03/23 08:00:51;;;;;;;1.50;1.10;;;10.70;98.20;;;;;;4890680;29;20481;-84
2024/03/23 08:03:27;;;;;;;1.50;1.10;;;10.80;98.20;;;;;;4890874;29;20462;-85
2024/03/23 08:05:53;;;;;;;1.50;1.00;;;11.00;98.20;;;;;;4890147;29;20530;-80
2024/03/23 08:08:20;;;;;;;1.50;1.10;;;11.10;98.20;;;;;;4890226;29;20490;-84
2024/03/23 08:10:49;;;;;;;1.50;1.00;;;11.20;98.20;;;;;;4886814;29;20245;-80
2024/03/23 08:13:21;;;;;;;1.50;1.00;;;11.30;98.20;;;;;;4885432;29;20478;-82
2024/03/23 08:15:48;;;;;;;1.50;0.90;;;11.40;98.20;;;;;;4885786;29;20498;-84
2024/03/23 08:18:16;;;;;;;1.50;1.03;;;11.50;98.20;;;;;;4883018;29;20479;-80
2024/03/23 08:20:42;;;;;;;1.50;1.00;;;11.70;98.20;;;;;;4881479;29;20470;-81
2024/03/23 08:23:09;;;;;;;1.50;1.10;;;11.80;98.20;;;;;;4890821;29;20454;-80
2024/03/23 08:25:35;;;;;;;1.50;1.10;;;11.80;98.20;;;;;;4877249;29;20478;-80
2024/03/23 08:28:02;;;;;;;1.50;1.07;;;11.60;98.20;;;;;;4875171;29;20543;-81
2024/03/23 08:30:29;;;;;;;1.50;1.00;;;11.60;98.20;;;;;;4875556;29;21134;-79
2024/03/23 08:32:57;;;;;;;1.50;1.00;;;11.60;98.20;;;;;;4876647;29;20527;-81
2024/03/23 08:35:23;;;;;;;1.50;1.00;;;11.70;98.20;;;;;;4876254;29;20485;-80
2024/03/23 08:37:53;;;;;;;1.50;1.00;;;11.60;98.20;;;;;;4877755;29;20561;-81
2024/03/23 08:40:19;;;;;;;1.50;1.00;;;11.60;98.20;;;;;;4872310;29;20732;-81
2024/03/23 08:42:46;;;;;;;1.50;1.00;;;11.70;98.20;;;;;;4876662;29;20466;-81
2024/03/23 08:45:12;;;;;;;1.50;1.00;;;11.80;98.20;;;;;;4875615;29;20222;-81
2024/03/23 08:47:39;;;;;;;1.50;0.90;;;11.90;98.20;;;;;;4877366;29;20928;-81
2024/03/23 08:50:07;;;;;;;1.50;1.03;;;12.00;98.20;;;;;;4876189;29;20490;-80
2024/03/23 08:53:05;;;;;;;;;;;;;;;;;;;;;
2024/03/23 09:02:00;;;;;;;1.50;0.90;;;12.00;98.20;;;;;;4880246;29;20466;-84
2024/03/23 09:04:37;;;;;;;1.50;1.00;;;12.00;98.20;;;;;;4881325;29;20462;-82
2024/03/23 09:07:33;;;;;;;1.50;1.00;;;12.00;98.20;;;;;;4882582;29;20526;-81
2024/03/23 09:10:29;;;;;;;1.50;1.00;;;11.90;98.20;;;;;;4872894;29;20498;-81
2024/03/23 09:13:14;;;;;;;1.50;1.00;;;11.80;98.20;;;;;;4833342;29;21306;-81
2024/03/23 09:16:09;;;;;;;1.50;1.00;;;11.90;98.20;;;;;;4840743;29;20495;-81
2024/03/23 09:18:50;;;;;;;1.50;1.00;;;12.30;98.20;;;;;;4875696;29;20485;-80
2024/03/23 09:21:30;;;;;;;4.80;2.40;;;12.50;98.20;;;;;;4880091;29;20494;-80
2024/03/23 09:23:59;;;;;;;1.50;1.00;;;12.30;98.20;;;;;;4882138;29;20458;-81
2024/03/23 09:26:25;;;;;;;1.50;1.07;;;12.10;98.20;;;;;;4878382;29;20478;-80
2024/03/23 09:29:28;;;;;;;1.50;0.97;;;11.70;98.20;;;;;;4874475;29;20494;-81
2024/03/23 09:31:57;;;;;;;1.50;1.00;;;11.40;98.20;;;;;;4879275;29;20470;-80
2024/03/23 09:34:28;;;;;;;1.50;1.10;;;11.50;98.20;;;;;;4876266;29;20485;-80
2024/03/23 09:37:13;;;;;;;1.50;1.00;;;11.80;98.20;;;;;;4880231;29;20506;-79
2024/03/23 09:39:47;;;;;;;1.50;1.10;;;12.20;98.20;;;;;;4878891;29;20550;-81
2024/03/23 09:42:27;;;;;;;2.37;1.20;;;12.40;98.20;;;;;;4877912;29;20957;-80
2024/03/23 09:45:02;;;;;;;1.50;1.00;;;12.50;98.20;;;;;;4854754;29;20474;-81
2024/03/23 09:47:41;;;;;;;1.50;0.97;;;12.40;98.20;;;;;;4877412;29;20477;-80
2024/03/23 09:50:09;;;;;;;1.50;1.00;;;12.30;98.20;;;;;;4873733;29;21263;-82
2024/03/23 09:52:35;;;;;;;1.50;1.00;;;12.20;98.20;;;;;;4875858;29;20560;-80
2024/03/23 09:55:33;;;;;;;1.50;1.00;;;12.10;98.20;;;;;;4876532;29;20569;-81
2024/03/23 10:00:33;;;;;;;1.50;1.10;;;12.00;98.20;;;;;;4894073;23;20486;-81
2024/03/23 10:03:10;;;;;;;1.50;1.10;;;11.90;98.20;;;;;;4892505;29;20469;-80
2024/03/23 10:06:00;;;;;;;1.50;1.00;;;12.10;98.20;;;;;;4891892;29;20473;-80
2024/03/23 10:08:33;;;;;;;1.50;0.97;;;12.30;98.20;;;;;;4890838;29;20497;-80
2024/03/23 10:11:15;;;;;;;1.50;1.10;;;12.20;98.20;;;;;;4891068;29;20474;-80
2024/03/23 10:13:56;;;;;;;1.50;1.00;;;12.00;98.20;;;;;;4888233;29;20477;-80
2024/03/23 10:16:26;;;;;;;1.50;1.10;;;11.90;98.20;;;;;;4889722;29;20473;-80
2024/03/23 10:18:55;;;;;;;1.50;1.10;;;11.70;98.20;;;;;;4888528;29;20489;-79
2024/03/23 10:21:28;;;;;;;1.50;1.00;;;11.70;98.20;;;;;;4890545;29;20510;-82
2024/03/23 10:24:08;;;;;;;1.50;1.00;;;11.80;98.20;;;;;;4885125;29;20475;-81
2024/03/23 10:26:37;;;;;;;1.43;0.90;;;11.70;98.20;;;;;;4892418;29;21043;-80
2024/03/23 10:29:12;;;;;;;1.50;0.90;;;11.80;98.20;;;;;;4887898;29;20572;-80
2024/03/23 10:32:00;;;;;;;1.50;0.97;;;11.70;98.20;;;;;;4890044;29;20483;-78
2024/03/23 10:34:29;;;;;;;1.47;1.00;;;11.50;98.20;;;;;;4886647;29;20474;-80
2024/03/23 10:36:58;;;;;;;1.40;1.00;;;11.40;98.20;;;;;;4888517;29;20904;-79
2024/03/23 10:39:38;;;;;;;1.50;1.00;;;11.20;98.20;;;;;;4887867;29;20514;-81
2024/03/23 10:42:43;;;;;;;1.50;1.00;;;11.10;98.20;;;;;;4888195;29;20462;-79
2024/03/23 10:45:19;;;;;;;1.50;1.00;;;11.00;98.20;;;;;;4895903;29;20477;-79
2024/03/23 10:47:53;;;;;;;1.50;1.07;;;10.90;98.20;;;;;;4897141;29;20481;-80
2024/03/23 10:50:37;;;;;;;1.50;1.03;;;10.80;98.20;;;;;;4894091;29;20488;-79
2024/03/23 10:53:36;;;;;;;1.50;1.00;;;10.70;98.20;;;;;;4894424;29;20477;-81
2024/03/23 10:56:04;;;;;;;1.50;1.00;;;10.60;98.20;;;;;;4895596;29;20477;-81
2024/03/23 10:58:57;;;;;;;2.03;1.83;;;10.60;98.20;;;;;;4894166;29;20643;-80
2024/03/23 11:01:34;;;;;;;1.50;1.00;;;10.50;98.20;;;;;;4895190;29;20523;-80
2024/03/23 11:04:12;;;;;;;1.50;1.10;;;10.30;98.20;;;;;;4895384;29;20512;-81
2024/03/23 11:17:23;;;;;;;3.53;2.13;;;9.00;98.20;;;;;;4785878;29;20474;-83
2024/03/23 11:20:24;;;;;;;1.50;1.10;;;9.00;98.20;;;;;;4878524;29;20587;-82
2024/03/23 11:22:52;;;;;;;1.50;1.10;;;8.90;98.20;;;;;;4892076;29;20470;-83
2024/03/23 11:25:26;;;;;;;1.50;1.00;;;8.90;98.20;;;;;;4892212;29;20496;-81
2024/03/23 11:27:54;;;;;;;1.50;1.10;;;8.90;98.20;;;;;;4890679;29;20513;-81
2024/03/23 11:30:22;;;;;;;1.50;1.00;;;9.00;98.20;;;;;;4889792;29;20477;-81
2024/03/23 11:32:53;;;;;;;1.50;1.10;;;9.20;98.20;;;;;;4890501;29;20458;-81
2024/03/23 11:35:26;;;;;;;1.50;1.00;;;9.90;98.20;;;;;;4885983;29;20549;-81
2024/03/23 11:38:07;;;;;;;1.50;1.00;;;10.50;98.20;;;;;;4891317;29;20497;-81
2024/03/23 11:40:34;;;;;;;1.50;1.00;;;11.00;98.20;;;;;;4885921;29;20493;-81
2024/03/23 11:43:02;;;;;;;1.50;1.10;;;11.40;98.20;;;;;;4885236;29;20470;-80
2024/03/23 11:45:33;;;;;;;1.50;1.00;;;11.80;98.20;;;;;;4887218;29;20633;-80
2024/03/23 11:48:06;;;;;;;1.50;1.00;;;12.10;98.20;;;;;;4887538;29;20514;-80
2024/03/23 11:50:32;;;;;;;1.50;1.00;;;12.30;98.20;;;;;;4883604;29;20473;-80
2024/03/23 11:53:16;;;;;;;1.50;1.00;;;12.50;98.20;;;;;;4886568;29;20474;-80
2024/03/23 11:55:46;;;;;;;1.50;1.00;;;12.80;98.20;;;;;;4883254;29;20497;-80
2024/03/23 11:58:14;;;;;;;1.50;1.00;;;13.00;98.20;;;;;;4886477;29;20533;-80
2024/03/23 12:00:40;;;;;;;1.50;1.10;;;13.30;98.20;;;;;;4888321;29;20876;-80
2024/03/23 12:03:09;;;;;;;1.70;1.10;;;13.50;98.20;;;;;;4884196;29;21210;-82
2024/03/23 12:05:37;;;;;;;1.47;1.00;;;13.70;97.90;;;;;;4884828;29;20520;-77
2024/03/23 12:08:25;;;;;;;1.50;0.90;;;13.40;95.60;;;;;;4888392;29;20562;-83
2024/03/23 12:10:52;;;;;;;1.50;1.00;;;12.50;95.50;;;;;;4884990;29;20497;-81
2024/03/23 12:13:20;;;;;;;1.47;0.93;;;11.60;97.50;;;;;;4888343;29;20468;-80
2024/03/23 12:15:47;;;;;;;1.50;1.00;;;11.10;98.20;;;;;;4888020;29;20470;-80
2024/03/23 12:18:41;;;;;;;1.50;0.97;;;10.80;98.20;;;;;;4887859;29;20481;-83
2024/03/23 12:21:10;;;;;;;1.50;1.10;;;10.50;98.20;;;;;;4896205;29;20493;-85
2024/03/23 12:24:05;;;;;;;1.50;1.00;;;10.10;98.20;;;;;;4890401;29;20493;-81
2024/03/23 12:26:34;;;;;;;1.50;1.00;;;9.90;98.20;;;;;;4887916;29;21165;-81
2024/03/23 12:29:01;;;;;;;1.50;1.10;;;9.70;98.20;;;;;;4885747;29;20560;-82
2024/03/23 12:31:30;;;;;;;1.50;1.00;;;9.50;98.20;;;;;;4882407;29;20477;-83
2024/03/23 12:34:08;;;;;;;1.50;1.00;;;9.40;98.20;;;;;;4884261;29;20486;-82
2024/03/23 12:44:53;;;;;;;1.50;1.10;;;8.70;98.20;;;;;;4976854;23;20517;-83
2024/03/23 12:47:19;;;;;;;1.50;1.00;;;8.70;98.20;;;;;;4875283;29;21001;-83
2024/03/23 12:49:49;;;;;;;1.50;1.00;;;8.80;98.20;;;;;;4871596;29;20494;-80
2024/03/23 12:52:15;;;;;;;1.50;1.00;;;9.10;98.20;;;;;;4871427;29;21317;-81
2024/03/23 12:54:42;;;;;;;1.47;1.00;;;9.40;98.20;;;;;;4872595;29;20647;-81
2024/03/23 12:57:08;;;;;;;1.50;1.10;;;9.70;98.20;;;;;;4873963;29;20494;-81
2024/03/23 12:59:36;;;;;;;1.50;1.00;;;10.00;98.20;;;;;;4872160;29;21013;-80
2024/03/23 13:02:02;;;;;;;1.50;1.10;;;10.30;98.20;;;;;;4873246;29;20606;-79
2024/03/23 13:04:29;;;;;;;1.50;1.10;;;10.70;98.20;;;;;;4871025;29;20989;-80
2024/03/23 13:06:57;;;;;;;1.50;1.00;;;11.00;98.20;;;;;;4874688;29;20547;-82
2024/03/23 13:09:24;;;;;;;1.50;1.00;;;11.30;98.20;;;;;;4872588;29;20529;-81
2024/03/23 13:11:50;;;;;;;1.50;1.00;;;11.60;98.20;;;;;;4870739;29;20474;-79
2024/03/23 13:14:17;;;;;;;1.50;1.00;;;11.80;98.20;;;;;;4869598;29;20509;-79
2024/03/23 13:16:44;;;;;;;1.50;0.90;;;12.00;98.20;;;;;;4868289;29;20470;-79
2024/03/23 13:19:13;;;;;;;1.50;1.00;;;12.20;98.20;;;;;;4870724;29;20494;-80
2024/03/23 13:21:39;;;;;;;1.50;1.10;;;12.40;98.20;;;;;;4871633;29;20652;-78
2024/03/23 13:24:09;;;;;;;1.50;1.10;;;12.50;98.20;;;;;;4875813;29;20553;-80
2024/03/23 13:26:35;;;;;;;1.50;0.93;;;12.60;98.20;;;;;;4869128;29;20214;-78
2024/03/23 13:29:06;;;;;;;1.50;0.90;;;12.70;98.20;;;;;;4873082;29;20854;-79
2024/03/23 13:31:34;;;;;;;1.50;1.00;;;13.00;98.20;;;;;;4873119;29;20469;-79
2024/03/23 13:34:01;;;;;;;1.50;0.90;;;13.10;97.50;;;;;;4871595;29;20877;-80
2024/03/23 13:36:30;;;;;;;1.50;1.00;;;13.20;97.10;;;;;;4869797;29;21096;-80
2024/03/23 13:38:57;;;;;;;1.47;0.90;;;12.90;97.20;;;;;;4875131;29;20518;-81
2024/03/23 13:41:24;;;;;;;1.50;1.00;;;12.50;97.50;;;;;;4872952;29;20471;-78
2024/03/23 13:43:51;;;;;;;1.50;0.90;;;12.20;98.20;;;;;;4868637;29;20489;-78